sensor_id;sensor_type;location;lat;lon;timestamp;temperature;humidity
21495;DHT22;10909;53.590;10.054;2023-07-09T00:00:16;24.50;45.10
21495;DHT22;10909;53.590;10.054;2023-07-09T00:02:43;24.60;45.70
21495;DHT22;10909;53.590;10.054;2023-07-09T00:05:12;24.50;45.10
21495;DHT22;10909;53.590;10.054;2023-07-09T00:07:38;24.50;45.70
21495;DHT22;10909;53.590;10.054;2023-07-09T00:12:40;24.40;45.50
21495;DHT22;10909;53.590;10.054;2023-07-09T00:15:06;24.30;45.80
21495;DHT22;10909;53.590;10.054;2023-07-09T00:17:35;24.30;45.70
21495;DHT22;10909;53.590;10.054;2023-07-09T00:20:04;24.30;45.60
21495;DHT22;10909;53.590;10.054;2023-07-09T00:22:30;24.20;45.80
21495;DHT22;10909;53.590;10.054;2023-07-09T00:24:56;24.20;45.70
21495;DHT22;10909;53.590;10.054;2023-07-09T00:27:24;24.10;45.70
21495;DHT22;10909;53.590;10.054;2023-07-09T00:29:51;24.10;45.80
21495;DHT22;10909;53.590;10.054;2023-07-09T00:32:19;24.10;46.10
21495;DHT22;10909;53.590;10.054;2023-07-09T00:34:50;24.00;45.90
21495;DHT22;10909;53.590;10.054;2023-07-09T00:37:18;24.00;45.90
21495;DHT22;10909;53.590;10.054;2023-07-09T00:39:45;24.00;45.90
21495;DHT22;10909;53.590;10.054;2023-07-09T00:42:16;24.00;46.10
21495;DHT22;10909;53.590;10.054;2023-07-09T00:44:44;23.90;46.20
21495;DHT22;10909;53.590;10.054;2023-07-09T00:47:45;23.90;46.20
21495;DHT22;10909;53.590;10.054;2023-07-09T00:50:31;23.90;47.00
21495;DHT22;10909;53.590;10.054;2023-07-09T00:53:02;23.80;47.10
21495;DHT22;10909;53.590;10.054;2023-07-09T00:55:34;23.80;46.20
21495;DHT22;10909;53.590;10.054;2023-07-09T00:58:06;23.80;46.10
21495;DHT22;10909;53.590;10.054;2023-07-09T01:00:37;23.70;46.10
21495;DHT22;10909;53.590;10.054;2023-07-09T01:03:15;23.70;46.30
21495;DHT22;10909;53.590;10.054;2023-07-09T01:05:45;23.70;46.30
21495;DHT22;10909;53.590;10.054;2023-07-09T01:08:17;23.70;46.40
21495;DHT22;10909;53.590;10.054;2023-07-09T01:10:44;23.60;46.30
21495;DHT22;10909;53.590;10.054;2023-07-09T01:13:09;23.60;46.10
21495;DHT22;10909;53.590;10.054;2023-07-09T01:15:36;23.50;46.40
21495;DHT22;10909;53.590;10.054;2023-07-09T01:18:04;23.50;46.30
21495;DHT22;10909;53.590;10.054;2023-07-09T01:20:38;23.50;46.60
21495;DHT22;10909;53.590;10.054;2023-07-09T01:23:04;23.40;46.70
21495;DHT22;10909;53.590;10.054;2023-07-09T01:25:41;23.40;46.60
21495;DHT22;10909;53.590;10.054;2023-07-09T01:28:07;23.30;46.80
21495;DHT22;10909;53.590;10.054;2023-07-09T01:30:39;23.30;46.70
21495;DHT22;10909;53.590;10.054;2023-07-09T01:33:06;23.30;46.80
21495;DHT22;10909;53.590;10.054;2023-07-09T01:35:34;23.20;46.70
21495;DHT22;10909;53.590;10.054;2023-07-09T01:38:01;23.20;46.60
21495;DHT22;10909;53.590;10.054;2023-07-09T01:40:28;23.20;46.70
21495;DHT22;10909;53.590;10.054;2023-07-09T01:42:54;23.10;46.60
21495;DHT22;10909;53.590;10.054;2023-07-09T01:45:21;23.10;46.80
21495;DHT22;10909;53.590;10.054;2023-07-09T01:47:47;23.00;46.70
21495;DHT22;10909;53.590;10.054;2023-07-09T01:50:13;23.00;46.90
21495;DHT22;10909;53.590;10.054;2023-07-09T01:52:42;23.00;46.90
21495;DHT22;10909;53.590;10.054;2023-07-09T01:55:10;23.00;47.00
21495;DHT22;10909;53.590;10.054;2023-07-09T01:57:37;23.00;46.80
21495;DHT22;10909;53.590;10.054;2023-07-09T02:00:08;22.90;46.60
21495;DHT22;10909;53.590;10.054;2023-07-09T02:02:41;22.90;47.30
21495;DHT22;10909;53.590;10.054;2023-07-09T02:05:14;22.90;46.60
21495;DHT22;10909;53.590;10.054;2023-07-09T02:07:42;22.90;46.60
21495;DHT22;10909;53.590;10.054;2023-07-09T02:10:09;22.80;46.60
21495;DHT22;10909;53.590;10.054;2023-07-09T02:12:35;22.80;46.60
21495;DHT22;10909;53.590;10.054;2023-07-09T02:15:01;22.80;46.40
21495;DHT22;10909;53.590;10.054;2023-07-09T02:17:26;22.80;46.60
21495;DHT22;10909;53.590;10.054;2023-07-09T02:19:52;22.80;47.50
21495;DHT22;10909;53.590;10.054;2023-07-09T02:22:18;22.70;46.90
21495;DHT22;10909;53.590;10.054;2023-07-09T02:24:46;22.70;46.70
21495;DHT22;10909;53.590;10.054;2023-07-09T02:27:16;22.70;46.90
21495;DHT22;10909;53.590;10.054;2023-07-09T02:29:42;22.70;46.90
21495;DHT22;10909;53.590;10.054;2023-07-09T02:32:07;22.60;46.90
21495;DHT22;10909;53.590;10.054;2023-07-09T02:34:34;22.60;47.00
21495;DHT22;10909;53.590;10.054;2023-07-09T02:37:01;22.50;47.10
21495;DHT22;10909;53.590;10.054;2023-07-09T02:39:27;22.50;47.00
21495;DHT22;10909;53.590;10.054;2023-07-09T02:41:53;22.50;47.00
21495;DHT22;10909;53.590;10.054;2023-07-09T02:44:19;22.40;46.80
21495;DHT22;10909;53.590;10.054;2023-07-09T02:46:45;22.40;46.80
21495;DHT22;10909;53.590;10.054;2023-07-09T02:49:13;22.40;47.10
21495;DHT22;10909;53.590;10.054;2023-07-09T02:51:43;22.40;47.10
21495;DHT22;10909;53.590;10.054;2023-07-09T02:54:10;22.40;47.00
21495;DHT22;10909;53.590;10.054;2023-07-09T02:56:35;22.30;46.80
21495;DHT22;10909;53.590;10.054;2023-07-09T02:59:01;22.30;46.90
21495;DHT22;10909;53.590;10.054;2023-07-09T03:01:28;22.30;47.20
21495;DHT22;10909;53.590;10.054;2023-07-09T03:03:55;22.30;47.10
21495;DHT22;10909;53.590;10.054;2023-07-09T03:06:22;22.30;47.20
21495;DHT22;10909;53.590;10.054;2023-07-09T03:08:53;22.30;47.10
21495;DHT22;10909;53.590;10.054;2023-07-09T03:11:20;22.20;47.10
21495;DHT22;10909;53.590;10.054;2023-07-09T03:13:47;22.20;47.10
21495;DHT22;10909;53.590;10.054;2023-07-09T03:16:13;22.20;47.00
21495;DHT22;10909;53.590;10.054;2023-07-09T03:18:39;22.20;47.00
21495;DHT22;10909;53.590;10.054;2023-07-09T03:21:11;22.20;47.00
21495;DHT22;10909;53.590;10.054;2023-07-09T03:23:37;22.20;47.30
21495;DHT22;10909;53.590;10.054;2023-07-09T03:26:03;22.20;47.20
21495;DHT22;10909;53.590;10.054;2023-07-09T03:28:30;22.10;47.10
21495;DHT22;10909;53.590;10.054;2023-07-09T03:30:56;22.10;47.20
21495;DHT22;10909;53.590;10.054;2023-07-09T03:33:23;22.10;47.20
21495;DHT22;10909;53.590;10.054;2023-07-09T03:35:50;22.10;47.20
21495;DHT22;10909;53.590;10.054;2023-07-09T03:38:16;22.10;47.30
21495;DHT22;10909;53.590;10.054;2023-07-09T03:40:41;22.10;47.10
21495;DHT22;10909;53.590;10.054;2023-07-09T03:43:08;22.10;47.30
21495;DHT22;10909;53.590;10.054;2023-07-09T03:45:35;22.10;47.40
21495;DHT22;10909;53.590;10.054;2023-07-09T03:48:02;22.10;47.40
21495;DHT22;10909;53.590;10.054;2023-07-09T03:50:28;22.10;47.30
21495;DHT22;10909;53.590;10.054;2023-07-09T03:52:54;22.10;47.20
21495;DHT22;10909;53.590;10.054;2023-07-09T03:55:20;22.10;47.20
21495;DHT22;10909;53.590;10.054;2023-07-09T03:57:46;22.10;47.20
21495;DHT22;10909;53.590;10.054;2023-07-09T04:00:13;22.00;47.10
21495;DHT22;10909;53.590;10.054;2023-07-09T04:02:39;22.10;47.10
21495;DHT22;10909;53.590;10.054;2023-07-09T04:05:06;22.10;47.20
21495;DHT22;10909;53.590;10.054;2023-07-09T04:07:34;22.10;47.20
21495;DHT22;10909;53.590;10.054;2023-07-09T04:09:59;22.10;47.40
21495;DHT22;10909;53.590;10.054;2023-07-09T04:12:25;22.10;47.40
21495;DHT22;10909;53.590;10.054;2023-07-09T04:14:50;22.10;47.30
21495;DHT22;10909;53.590;10.054;2023-07-09T04:17:16;22.10;47.30
21495;DHT22;10909;53.590;10.054;2023-07-09T04:19:42;22.10;47.30
21495;DHT22;10909;53.590;10.054;2023-07-09T04:22:10;22.10;47.20
21495;DHT22;10909;53.590;10.054;2023-07-09T04:24:35;22.10;47.20
21495;DHT22;10909;53.590;10.054;2023-07-09T04:27:01;22.10;47.10
21495;DHT22;10909;53.590;10.054;2023-07-09T04:29:29;22.10;47.20
21495;DHT22;10909;53.590;10.054;2023-07-09T04:31:55;22.10;47.10
21495;DHT22;10909;53.590;10.054;2023-07-09T04:34:20;22.10;47.00
21495;DHT22;10909;53.590;10.054;2023-07-09T04:36:46;22.10;47.00
21495;DHT22;10909;53.590;10.054;2023-07-09T04:39:12;22.20;47.10
21495;DHT22;10909;53.590;10.054;2023-07-09T04:41:37;22.20;47.10
21495;DHT22;10909;53.590;10.054;2023-07-09T04:44:03;22.20;47.00
21495;DHT22;10909;53.590;10.054;2023-07-09T04:46:29;22.20;47.00
21495;DHT22;10909;53.590;10.054;2023-07-09T04:48:54;22.20;47.00
21495;DHT22;10909;53.590;10.054;2023-07-09T04:51:21;22.20;47.00
21495;DHT22;10909;53.590;10.054;2023-07-09T04:53:47;22.30;47.10
21495;DHT22;10909;53.590;10.054;2023-07-09T04:56:12;22.30;47.10
21495;DHT22;10909;53.590;10.054;2023-07-09T04:58:38;22.30;47.10
21495;DHT22;10909;53.590;10.054;2023-07-09T05:01:04;22.30;47.10
21495;DHT22;10909;53.590;10.054;2023-07-09T05:03:29;22.30;47.10
21495;DHT22;10909;53.590;10.054;2023-07-09T05:05:55;22.40;47.20
21495;DHT22;10909;53.590;10.054;2023-07-09T05:08:21;22.40;47.10
21495;DHT22;10909;53.590;10.054;2023-07-09T05:10:51;22.40;47.10
21495;DHT22;10909;53.590;10.054;2023-07-09T05:13:17;22.40;47.20
21495;DHT22;10909;53.590;10.054;2023-07-09T05:15:46;22.40;47.10
21495;DHT22;10909;53.590;10.054;2023-07-09T05:18:13;22.50;47.20
21495;DHT22;10909;53.590;10.054;2023-07-09T05:20:39;22.50;47.20
21495;DHT22;10909;53.590;10.054;2023-07-09T05:23:05;22.60;47.10
21495;DHT22;10909;53.590;10.054;2023-07-09T05:25:31;22.60;47.10
21495;DHT22;10909;53.590;10.054;2023-07-09T05:27:56;22.70;47.10
21495;DHT22;10909;53.590;10.054;2023-07-09T05:30:22;22.70;47.70
21495;DHT22;10909;53.590;10.054;2023-07-09T05:32:48;22.80;47.00
21495;DHT22;10909;53.590;10.054;2023-07-09T05:35:14;22.90;47.00
21495;DHT22;10909;53.590;10.054;2023-07-09T05:37:40;22.90;46.90
21495;DHT22;10909;53.590;10.054;2023-07-09T05:40:08;23.00;46.90
21495;DHT22;10909;53.590;10.054;2023-07-09T05:42:34;23.10;46.90
21495;DHT22;10909;53.590;10.054;2023-07-09T05:45:00;23.10;46.80
21495;DHT22;10909;53.590;10.054;2023-07-09T05:47:26;23.20;46.80
21495;DHT22;10909;53.590;10.054;2023-07-09T05:49:52;23.20;46.70
21495;DHT22;10909;53.590;10.054;2023-07-09T05:52:20;23.30;46.70
21495;DHT22;10909;53.590;10.054;2023-07-09T05:54:48;23.30;46.70
21495;DHT22;10909;53.590;10.054;2023-07-09T05:57:14;23.40;46.60
21495;DHT22;10909;53.590;10.054;2023-07-09T05:59:39;23.40;46.60
21495;DHT22;10909;53.590;10.054;2023-07-09T06:02:10;23.40;46.60
21495;DHT22;10909;53.590;10.054;2023-07-09T06:04:36;23.50;46.60
21495;DHT22;10909;53.590;10.054;2023-07-09T06:07:01;23.50;46.50
21495;DHT22;10909;53.590;10.054;2023-07-09T06:09:29;23.60;46.50
21495;DHT22;10909;53.590;10.054;2023-07-09T06:11:55;23.70;46.50
21495;DHT22;10909;53.590;10.054;2023-07-09T06:14:21;23.70;46.50
21495;DHT22;10909;53.590;10.054;2023-07-09T06:16:46;23.80;46.50
21495;DHT22;10909;53.590;10.054;2023-07-09T06:19:12;23.90;46.40
21495;DHT22;10909;53.590;10.054;2023-07-09T06:21:39;23.90;46.40
21495;DHT22;10909;53.590;10.054;2023-07-09T06:24:06;24.00;46.40
21495;DHT22;10909;53.590;10.054;2023-07-09T06:26:33;24.10;46.40
21495;DHT22;10909;53.590;10.054;2023-07-09T06:28:58;24.10;46.30
21495;DHT22;10909;53.590;10.054;2023-07-09T06:31:24;24.20;46.30
21495;DHT22;10909;53.590;10.054;2023-07-09T06:33:51;24.30;46.40
21495;DHT22;10909;53.590;10.054;2023-07-09T06:36:18;24.30;46.20
21495;DHT22;10909;53.590;10.054;2023-07-09T06:38:44;24.40;46.20
21495;DHT22;10909;53.590;10.054;2023-07-09T06:41:10;24.40;46.00
21495;DHT22;10909;53.590;10.054;2023-07-09T06:43:36;24.50;46.10
21495;DHT22;10909;53.590;10.054;2023-07-09T06:46:07;24.50;46.00
21495;DHT22;10909;53.590;10.054;2023-07-09T06:48:33;24.60;46.10
21495;DHT22;10909;53.590;10.054;2023-07-09T06:50:59;24.70;46.10
21495;DHT22;10909;53.590;10.054;2023-07-09T06:53:26;24.80;46.10
21495;DHT22;10909;53.590;10.054;2023-07-09T06:55:53;24.90;46.10
21495;DHT22;10909;53.590;10.054;2023-07-09T06:58:21;24.90;46.00
21495;DHT22;10909;53.590;10.054;2023-07-09T07:00:49;25.00;46.00
21495;DHT22;10909;53.590;10.054;2023-07-09T07:03:15;25.10;46.50
21495;DHT22;10909;53.590;10.054;2023-07-09T07:05:48;25.20;46.00
21495;DHT22;10909;53.590;10.054;2023-07-09T07:08:17;25.30;45.90
21495;DHT22;10909;53.590;10.054;2023-07-09T07:11:05;25.30;45.70
21495;DHT22;10909;53.590;10.054;2023-07-09T07:13:32;25.40;45.70
21495;DHT22;10909;53.590;10.054;2023-07-09T07:15:58;25.50;45.70
21495;DHT22;10909;53.590;10.054;2023-07-09T07:18:23;25.60;45.60
21495;DHT22;10909;53.590;10.054;2023-07-09T07:20:49;25.70;45.60
21495;DHT22;10909;53.590;10.054;2023-07-09T07:23:17;25.80;45.60
21495;DHT22;10909;53.590;10.054;2023-07-09T07:25:44;25.80;45.50
21495;DHT22;10909;53.590;10.054;2023-07-09T07:28:09;25.90;45.30
21495;DHT22;10909;53.590;10.054;2023-07-09T07:30:35;26.00;45.30
21495;DHT22;10909;53.590;10.054;2023-07-09T07:33:01;26.10;45.40
21495;DHT22;10909;53.590;10.054;2023-07-09T07:35:26;26.20;45.40
21495;DHT22;10909;53.590;10.054;2023-07-09T07:37:52;26.20;45.40
21495;DHT22;10909;53.590;10.054;2023-07-09T07:40:18;26.30;45.30
21495;DHT22;10909;53.590;10.054;2023-07-09T07:42:44;26.40;45.30
21495;DHT22;10909;53.590;10.054;2023-07-09T07:45:09;26.50;45.20
21495;DHT22;10909;53.590;10.054;2023-07-09T07:47:35;26.50;45.00
21495;DHT22;10909;53.590;10.054;2023-07-09T07:50:01;26.60;45.00
21495;DHT22;10909;53.590;10.054;2023-07-09T07:52:28;26.70;44.90
21495;DHT22;10909;53.590;10.054;2023-07-09T07:54:54;26.70;44.80
21495;DHT22;10909;53.590;10.054;2023-07-09T07:57:21;26.80;44.50
21495;DHT22;10909;53.590;10.054;2023-07-09T07:59:47;26.90;44.60
21495;DHT22;10909;53.590;10.054;2023-07-09T08:02:13;27.00;44.60
21495;DHT22;10909;53.590;10.054;2023-07-09T08:04:40;27.00;44.50
21495;DHT22;10909;53.590;10.054;2023-07-09T08:07:10;27.10;44.20
21495;DHT22;10909;53.590;10.054;2023-07-09T08:09:36;27.20;44.20
21495;DHT22;10909;53.590;10.054;2023-07-09T08:12:03;27.20;44.40
21495;DHT22;10909;53.590;10.054;2023-07-09T08:14:35;27.30;44.10
21495;DHT22;10909;53.590;10.054;2023-07-09T08:17:00;27.40;44.10
21495;DHT22;10909;53.590;10.054;2023-07-09T08:19:26;27.50;44.00
21495;DHT22;10909;53.590;10.054;2023-07-09T08:21:52;27.60;44.00
21495;DHT22;10909;53.590;10.054;2023-07-09T08:24:18;27.70;44.10
21495;DHT22;10909;53.590;10.054;2023-07-09T08:26:44;27.80;44.00
21495;DHT22;10909;53.590;10.054;2023-07-09T08:29:10;27.80;43.90
21495;DHT22;10909;53.590;10.054;2023-07-09T08:31:35;27.90;43.70
21495;DHT22;10909;53.590;10.054;2023-07-09T08:34:02;28.00;43.70
21495;DHT22;10909;53.590;10.054;2023-07-09T08:36:27;28.00;43.50
21495;DHT22;10909;53.590;10.054;2023-07-09T08:38:53;28.10;43.60
21495;DHT22;10909;53.590;10.054;2023-07-09T08:41:28;28.20;43.60
21495;DHT22;10909;53.590;10.054;2023-07-09T08:44:32;28.20;43.60
21495;DHT22;10909;53.590;10.054;2023-07-09T08:47:14;28.30;43.50
21495;DHT22;10909;53.590;10.054;2023-07-09T08:54:58;28.60;43.10
21495;DHT22;10909;53.590;10.054;2023-07-09T08:57:29;28.60;43.20
21495;DHT22;10909;53.590;10.054;2023-07-09T09:00:02;28.70;43.10
21495;DHT22;10909;53.590;10.054;2023-07-09T09:02:39;28.80;43.10
21495;DHT22;10909;53.590;10.054;2023-07-09T09:05:07;28.90;43.00
21495;DHT22;10909;53.590;10.054;2023-07-09T09:07:42;29.00;43.00
21495;DHT22;10909;53.590;10.054;2023-07-09T09:10:16;29.00;42.70
21495;DHT22;10909;53.590;10.054;2023-07-09T09:13:05;29.10;42.70
21495;DHT22;10909;53.590;10.054;2023-07-09T09:15:38;29.20;42.70
21495;DHT22;10909;53.590;10.054;2023-07-09T09:18:34;29.20;42.70
21495;DHT22;10909;53.590;10.054;2023-07-09T09:23:49;29.50;42.60
21495;DHT22;10909;53.590;10.054;2023-07-09T09:26:27;29.50;42.50
21495;DHT22;10909;53.590;10.054;2023-07-09T09:28:54;29.70;42.50
21495;DHT22;10909;53.590;10.054;2023-07-09T09:31:19;29.80;42.50
21495;DHT22;10909;53.590;10.054;2023-07-09T09:33:48;29.80;42.40
21495;DHT22;10909;53.590;10.054;2023-07-09T09:36:20;29.90;42.30
21495;DHT22;10909;53.590;10.054;2023-07-09T09:38:45;30.00;42.00
21495;DHT22;10909;53.590;10.054;2023-07-09T09:41:15;30.10;42.10
21495;DHT22;10909;53.590;10.054;2023-07-09T09:43:43;30.20;41.60
21495;DHT22;10909;53.590;10.054;2023-07-09T09:46:20;30.20;41.50
21495;DHT22;10909;53.590;10.054;2023-07-09T09:48:49;30.30;41.40
21495;DHT22;10909;53.590;10.054;2023-07-09T09:51:16;30.40;41.60
21495;DHT22;10909;53.590;10.054;2023-07-09T09:53:48;30.40;41.40
21495;DHT22;10909;53.590;10.054;2023-07-09T09:56:20;30.50;41.30
21495;DHT22;10909;53.590;10.054;2023-07-09T09:58:53;30.60;41.20
21495;DHT22;10909;53.590;10.054;2023-07-09T10:01:20;30.70;41.30
21495;DHT22;10909;53.590;10.054;2023-07-09T10:03:50;30.70;41.00
21495;DHT22;10909;53.590;10.054;2023-07-09T10:11:46;30.90;40.20
21495;DHT22;10909;53.590;10.054;2023-07-09T10:19:57;31.20;40.60
21495;DHT22;10909;53.590;10.054;2023-07-09T10:25:33;31.40;40.50
21495;DHT22;10909;53.590;10.054;2023-07-09T10:39:44;31.80;39.90
21495;DHT22;10909;53.590;10.054;2023-07-09T10:44:57;32.00;40.30
21495;DHT22;10909;53.590;10.054;2023-07-09T10:47:43;32.10;39.00
21495;DHT22;10909;53.590;10.054;2023-07-09T10:50:34;32.20;38.50
21495;DHT22;10909;53.590;10.054;2023-07-09T10:53:47;32.30;39.30
21495;DHT22;10909;53.590;10.054;2023-07-09T10:55:59;32.40;38.70
21495;DHT22;10909;53.590;10.054;2023-07-09T10:59:20;32.50;38.30
21495;DHT22;10909;53.590;10.054;2023-07-09T11:01:25;32.60;38.00
21495;DHT22;10909;53.590;10.054;2023-07-09T11:04:00;32.70;37.80
21495;DHT22;10909;53.590;10.054;2023-07-09T11:06:40;32.70;37.50
21495;DHT22;10909;53.590;10.054;2023-07-09T11:09:21;32.80;37.30
21495;DHT22;10909;53.590;10.054;2023-07-09T11:11:50;32.90;37.40
21495;DHT22;10909;53.590;10.054;2023-07-09T11:14:32;33.00;37.50
21495;DHT22;10909;53.590;10.054;2023-07-09T11:16:59;33.10;36.90
21495;DHT22;10909;53.590;10.054;2023-07-09T11:19:26;33.20;36.90
21495;DHT22;10909;53.590;10.054;2023-07-09T11:22:13;33.20;36.90
21495;DHT22;10909;53.590;10.054;2023-07-09T11:24:48;33.30;36.00
21495;DHT22;10909;53.590;10.054;2023-07-09T11:27:21;33.40;36.20
21495;DHT22;10909;53.590;10.054;2023-07-09T11:30:03;33.40;36.30
21495;DHT22;10909;53.590;10.054;2023-07-09T11:32:30;33.50;36.20
21495;DHT22;10909;53.590;10.054;2023-07-09T11:35:07;33.60;36.10
21495;DHT22;10909;53.590;10.054;2023-07-09T11:37:44;33.70;36.00
21495;DHT22;10909;53.590;10.054;2023-07-09T11:40:12;33.70;35.80
21495;DHT22;10909;53.590;10.054;2023-07-09T11:42:57;33.80;36.10
21495;DHT22;10909;53.590;10.054;2023-07-09T11:45:28;33.90;35.70
21495;DHT22;10909;53.590;10.054;2023-07-09T11:50:35;34.10;34.90
21495;DHT22;10909;53.590;10.054;2023-07-09T11:53:34;34.20;35.00
21495;DHT22;10909;53.590;10.054;2023-07-09T11:55:58;34.30;34.20
21495;DHT22;10909;53.590;10.054;2023-07-09T11:58:24;34.40;34.90
21495;DHT22;10909;53.590;10.054;2023-07-09T12:00:51;34.50;34.60
21495;DHT22;10909;53.590;10.054;2023-07-09T12:03:20;34.60;34.10
21495;DHT22;10909;53.590;10.054;2023-07-09T12:05:54;34.70;34.20
21495;DHT22;10909;53.590;10.054;2023-07-09T12:08:39;34.90;33.30
21495;DHT22;10909;53.590;10.054;2023-07-09T12:11:05;34.90;33.20
21495;DHT22;10909;53.590;10.054;2023-07-09T12:13:39;35.00;33.30
21495;DHT22;10909;53.590;10.054;2023-07-09T12:16:20;35.10;32.70
21495;DHT22;10909;53.590;10.054;2023-07-09T12:18:45;35.10;32.40
21495;DHT22;10909;53.590;10.054;2023-07-09T12:21:12;35.30;32.70
21495;DHT22;10909;53.590;10.054;2023-07-09T12:23:40;35.30;32.50
21495;DHT22;10909;53.590;10.054;2023-07-09T12:26:06;35.40;32.70
21495;DHT22;10909;53.590;10.054;2023-07-09T12:28:32;35.50;32.60
21495;DHT22;10909;53.590;10.054;2023-07-09T12:30:58;35.70;32.80
21495;DHT22;10909;53.590;10.054;2023-07-09T12:33:26;35.90;31.80
21495;DHT22;10909;53.590;10.054;2023-07-09T12:36:11;36.20;32.00
21495;DHT22;10909;53.590;10.054;2023-07-09T12:38:45;36.40;31.10
21495;DHT22;10909;53.590;10.054;2023-07-09T12:43:43;36.70;30.50
21495;DHT22;10909;53.590;10.054;2023-07-09T12:46:09;36.80;30.50
21495;DHT22;10909;53.590;10.054;2023-07-09T12:48:35;36.90;30.60
21495;DHT22;10909;53.590;10.054;2023-07-09T12:51:01;37.00;30.10
21495;DHT22;10909;53.590;10.054;2023-07-09T12:53:28;37.10;30.30
21495;DHT22;10909;53.590;10.054;2023-07-09T12:55:56;37.30;29.70
21495;DHT22;10909;53.590;10.054;2023-07-09T12:58:23;37.50;29.80
21495;DHT22;10909;53.590;10.054;2023-07-09T13:00:50;37.70;29.80
21495;DHT22;10909;53.590;10.054;2023-07-09T13:03:19;38.00;29.40
21495;DHT22;10909;53.590;10.054;2023-07-09T13:08:59;38.50;27.90
21495;DHT22;10909;53.590;10.054;2023-07-09T13:11:31;38.60;28.50
21495;DHT22;10909;53.590;10.054;2023-07-09T13:14:02;38.70;28.60
21495;DHT22;10909;53.590;10.054;2023-07-09T13:16:38;38.90;28.40
21495;DHT22;10909;53.590;10.054;2023-07-09T13:19:05;39.10;27.20
21495;DHT22;10909;53.590;10.054;2023-07-09T13:21:31;39.30;28.10
21495;DHT22;10909;53.590;10.054;2023-07-09T13:23:57;39.50;27.70
21495;DHT22;10909;53.590;10.054;2023-07-09T13:26:24;39.70;27.30
21495;DHT22;10909;53.590;10.054;2023-07-09T13:28:49;39.80;26.50
21495;DHT22;10909;53.590;10.054;2023-07-09T13:31:19;40.00;26.60
21495;DHT22;10909;53.590;10.054;2023-07-09T13:33:52;40.10;26.60
21495;DHT22;10909;53.590;10.054;2023-07-09T13:36:19;40.20;26.30
21495;DHT22;10909;53.590;10.054;2023-07-09T13:38:45;40.30;26.60
21495;DHT22;10909;53.590;10.054;2023-07-09T13:41:16;40.40;26.50
21495;DHT22;10909;53.590;10.054;2023-07-09T13:43:45;40.60;26.10
21495;DHT22;10909;53.590;10.054;2023-07-09T13:46:11;40.70;26.10
21495;DHT22;10909;53.590;10.054;2023-07-09T13:48:39;41.00;26.10
21495;DHT22;10909;53.590;10.054;2023-07-09T13:51:22;41.20;26.00
21495;DHT22;10909;53.590;10.054;2023-07-09T13:53:53;41.50;25.10
21495;DHT22;10909;53.590;10.054;2023-07-09T13:56:20;41.60;25.40
21495;DHT22;10909;53.590;10.054;2023-07-09T13:58:45;41.80;25.40
21495;DHT22;10909;53.590;10.054;2023-07-09T14:01:20;41.90;24.90
21495;DHT22;10909;53.590;10.054;2023-07-09T14:03:47;41.90;24.40
21495;DHT22;10909;53.590;10.054;2023-07-09T14:06:15;42.00;24.60
21495;DHT22;10909;53.590;10.054;2023-07-09T14:08:41;42.10;24.60
21495;DHT22;10909;53.590;10.054;2023-07-09T14:11:14;42.00;24.40
21495;DHT22;10909;53.590;10.054;2023-07-09T14:13:40;42.10;24.00
21495;DHT22;10909;53.590;10.054;2023-07-09T14:16:10;42.10;24.30
21495;DHT22;10909;53.590;10.054;2023-07-09T14:18:36;42.00;24.20
21495;DHT22;10909;53.590;10.054;2023-07-09T14:23:39;42.10;24.50
21495;DHT22;10909;53.590;10.054;2023-07-09T14:26:05;42.10;24.40
21495;DHT22;10909;53.590;10.054;2023-07-09T14:28:34;42.10;24.10
21495;DHT22;10909;53.590;10.054;2023-07-09T14:31:20;42.10;24.20
21495;DHT22;10909;53.590;10.054;2023-07-09T14:33:47;42.10;23.80
21495;DHT22;10909;53.590;10.054;2023-07-09T14:36:12;42.10;24.10
21495;DHT22;10909;53.590;10.054;2023-07-09T14:38:38;42.00;24.00
21495;DHT22;10909;53.590;10.054;2023-07-09T14:41:24;41.90;24.00
21495;DHT22;10909;53.590;10.054;2023-07-09T14:43:51;41.90;23.80
21495;DHT22;10909;53.590;10.054;2023-07-09T14:46:18;41.90;24.10
21495;DHT22;10909;53.590;10.054;2023-07-09T14:48:43;41.90;24.00
21495;DHT22;10909;53.590;10.054;2023-07-09T14:51:15;42.00;23.80
21495;DHT22;10909;53.590;10.054;2023-07-09T14:53:41;42.00;23.50
21495;DHT22;10909;53.590;10.054;2023-07-09T14:56:07;42.00;23.90
21495;DHT22;10909;53.590;10.054;2023-07-09T14:58:33;42.00;23.70
21495;DHT22;10909;53.590;10.054;2023-07-09T15:00:59;42.00;23.50
21495;DHT22;10909;53.590;10.054;2023-07-09T15:03:26;42.00;23.40
21495;DHT22;10909;53.590;10.054;2023-07-09T15:05:52;42.00;23.50
21495;DHT22;10909;53.590;10.054;2023-07-09T15:08:22;42.00;23.40
21495;DHT22;10909;53.590;10.054;2023-07-09T15:10:50;42.00;23.50
21495;DHT22;10909;53.590;10.054;2023-07-09T15:13:29;42.10;23.60
21495;DHT22;10909;53.590;10.054;2023-07-09T15:15:58;42.20;23.10
21495;DHT22;10909;53.590;10.054;2023-07-09T15:18:23;42.30;23.40
21495;DHT22;10909;53.590;10.054;2023-07-09T15:20:51;42.30;23.10
21495;DHT22;10909;53.590;10.054;2023-07-09T15:23:19;42.40;23.40
21495;DHT22;10909;53.590;10.054;2023-07-09T15:25:47;42.50;23.40
21495;DHT22;10909;53.590;10.054;2023-07-09T15:28:14;42.60;23.70
21495;DHT22;10909;53.590;10.054;2023-07-09T15:30:40;42.70;23.00
21495;DHT22;10909;53.590;10.054;2023-07-09T15:33:12;42.70;22.70
21495;DHT22;10909;53.590;10.054;2023-07-09T15:35:39;42.70;22.50
21495;DHT22;10909;53.590;10.054;2023-07-09T15:40:44;42.60;22.20
21495;DHT22;10909;53.590;10.054;2023-07-09T15:43:13;42.50;22.50
21495;DHT22;10909;53.590;10.054;2023-07-09T15:45:42;42.50;22.50
21495;DHT22;10909;53.590;10.054;2023-07-09T15:50:52;42.40;22.20
21495;DHT22;10909;53.590;10.054;2023-07-09T15:53:21;42.30;22.50
21495;DHT22;10909;53.590;10.054;2023-07-09T15:55:48;42.30;22.40
21495;DHT22;10909;53.590;10.054;2023-07-09T15:58:24;42.10;22.20
21495;DHT22;10909;53.590;10.054;2023-07-09T16:00:51;42.00;22.30
21495;DHT22;10909;53.590;10.054;2023-07-09T16:03:16;41.80;22.40
21495;DHT22;10909;53.590;10.054;2023-07-09T16:05:42;41.60;22.40
21495;DHT22;10909;53.590;10.054;2023-07-09T16:08:11;41.40;22.50
21495;DHT22;10909;53.590;10.054;2023-07-09T16:10:38;41.10;22.40
21495;DHT22;10909;53.590;10.054;2023-07-09T16:13:18;40.90;22.50
21495;DHT22;10909;53.590;10.054;2023-07-09T16:15:45;40.60;22.40
21495;DHT22;10909;53.590;10.054;2023-07-09T16:18:11;40.50;22.90
21495;DHT22;10909;53.590;10.054;2023-07-09T16:20:37;40.30;23.10